Updated21/03/2018 12:25 

free counters
Scottish Weather Network UK Weather Network Cumulus Top Weather Sites

Peebles Weather - UV Forecast

Raw Data, Raw Data Expanded

Ignore low humidity and Dew Point values. Something wrong with the sensor.
Daytime temperatures are in direct sunlight so may be higher than official air temperature values.

Snow level is current accumulated settled snow estimated/measured from level platform in sheltered garden (yes the picnic bench...).

2018/03/21 11:50 EGPH 211150Z 24018KT 9999 BKN022 08/03 Q1023
8.3°C 0.0 mm 0.0 mm 0.0 mm 7.4 mph 18.3 mph 1020.2 hPa 68% X-Ray Solar Flare Level
Planetary K-Index
Planetary K-Index History
Station Warn Rain Snow Flood Wind Ltng Heat Cold Glob Moon Temp Rain 1h Rain Wed Rain 24h Wind 10m Gust Pressure Hum Proton Levels

0.498 m Waxing Crescent Cold F2-WNW F:69 A:8 Kp:0 SSN:0

UV Index Forecast


Wed Thu Fri Sat Sun Mon
UV Index UV Index UV Index UV Index UV Index UV Index
1.9 1.9 1.8 1.9 1.9 1.8
 Low   Low   Low   Low   Low   Low 

UV forecast courtesy of and Copyright © KNMI/ESA (http://www.temis.nl/). Used with permission.

UV Index Legend
UV Index Scale